Forside
METAR-TAF:

METAR-TAF

Lufthavne :

Driggs, Idaho, USA

Breddekreds: 43-44-33N, længdekreds: 111-05-51W, højde: 1899 m

Aktuelle vejr

Denne rapport blev lavet for 1 time og 27 minutter siden, kl. 05:56 UTC
Vind 3 kt fra sydøst
Temperatur 1°C
Fugtighed 69%
Tryk 1023 hPa
Sigt: 16.1 km
skyfri

METAR: KDIJ 220556Z AUTO 13003KT 10SM CLR 01/M04 A3020 RMK AO2 SLP204 T00061044 10144 21011 58000

Tid: 01:23 (07:23 UTC)

Vejrudsigter

Denne rapport blev lavet for 2 timer og 3 minutter siden, kl. 05:20 UTC
Foreløbig gælder fra 22 på 06 UTC til 23 på 06 UTC
Vind 6 kt fra øst
Sigt: 10 km
Brudte skyer i en højde af 12000 ft
Fra 22 på 1500 UTC
Vind 6 kt fra varierende retninger
Sigt: 10 km
Spredte skyer i en højde af 5000 ft
Brudte skyer i en højde af 7000 ft
byger i nærheden
Fra 22 på 2000 UTC
Vind 6 kt fra sydsydøst
Sigt: 10 km
Spredte skyer i en højde af 7000 ft

TAF: KDIJ 220520Z 2206/2306 10006KT P6SM BKN120 FM221500 VRB06KT P6SM VCSH SCT050 BKN070 FM222000 15006KT P6SM SCT070 AMD LTD TO CLD VIS AND WIND

Vejrobservationer og prognoser fra mere end 4000 lufthavne (METAR og TAF).

De gule og røde prikker repræsenterer de meteorologiske stationer.

Flyt musen over at se navnet på stationen.

Så klik over at se vejr observationer og prognoser.

At skifte det kort: Klik på de grønne knapper med et sort kors for at zoome ind; på den grønne knap med en bindestreg for at zoome ud; eller på de grønne pile for tilstødende kort.


METAR-TAF: